This is the latest recevied weather packets stored in our database for station/object K5BOU. If no packets are shown the sender has not sent any weather packets the latest 10 day(s).
| Time | Temp. | Humidity | Pressure | Rain* | Wind** | Luminosity | Snow |
|---|---|---|---|---|---|---|---|
| 1777838929 | 27.78° C | 41% | 1018 hPa | 0 mm | - | 702 W/m² | - |
| 1777838625 | 27.22° C | 41% | 1018.2 hPa | 0 mm | - | 704 W/m² | - |
| 1777838322 | 27.22° C | 41% | 1018.2 hPa | 0 mm | - | 704 W/m² | - |
| 1777838018 | 26.67° C | 47% | 1018.5 hPa | 0 mm | - | 692 W/m² | - |
| 1777837716 | 26.67° C | 43% | 1018.3 hPa | 0 mm | - | 713 W/m² | - |
| 1777837412 | 26.67° C | 43% | 1018.5 hPa | 0 mm | - | 713 W/m² | - |
| 1777837108 | 26.67° C | 45% | 1018.4 hPa | 0 mm | - | 719 W/m² | - |
| 1777836804 | 26.67° C | 45% | 1018.4 hPa | 0 mm | - | 722 W/m² | - |
| 1777836500 | 26.67° C | 45% | 1018.7 hPa | 0 mm | - | 722 W/m² | - |
| 1777836196 | 26.67° C | 44% | 1018.7 hPa | 0 mm | - | 723 W/m² | - |
| 1777835892 | 26.67° C | 48% | 1018.8 hPa | 0 mm | - | 711 W/m² | - |
| 1777835589 | 26.67° C | 43% | 1018.7 hPa | 0 mm | - | 749 W/m² | - |
| 1777835286 | 26.67° C | 43% | 1019 hPa | 0 mm | - | 749 W/m² | - |
| 1777834983 | 26.67° C | 43% | 1019.1 hPa | 0 mm | - | 749 W/m² | - |
| 1777834680 | 26.67° C | 46% | 1019.1 hPa | 0 mm | - | 747 W/m² | - |
| 1777834376 | 26.67° C | 44% | 1019.1 hPa | 0 mm | - | 756 W/m² | - |
| 1777834075 | 26.67° C | 44% | 1019.2 hPa | 0 mm | - | 756 W/m² | - |
| 1777833772 | 26.67° C | 41% | 1019.3 hPa | 0 mm | - | 765 W/m² | - |
| 1777833468 | 26.67° C | 41% | 1019.4 hPa | 0 mm | - | 765 W/m² | - |
| 1777833166 | 26.67° C | 41% | 1019.5 hPa | 0 mm | - | 765 W/m² | - |
| 1777832863 | 26.67° C | 43% | 1019.8 hPa | 0 mm | - | 764 W/m² | - |
| 1777832562 | - | - | - | 0 mm | - | - | - |
| 1777832259 | - | - | - | 0 mm | - | - | - |
| 1777831956 | - | - | - | 0 mm | - | - | - |
| 1777831652 | 25.56° C | 48% | 1019.9 hPa | 0 mm | - | 785 W/m² | - |
* Rain latest hour (hover to see other rain measurements)
** Current wind speed in m/s (hover to see current wind gust speed)